Have a Safe July 4th! 

Flight Track Log - Related Links

Times and Time Zones

All times are in EDT time to prevent confusion due to time zone crossing. See the AAL832 flight status page for this flight to view local times or setup timezone preferences in your user account.

Time Position Orientation Groundspeed Altitude Reporting Facility
EDT Latitude Longitude Course Direction KTS MPH feet Rate Location/Type
Mon 12:09:37 PM 33.9442 -118.4619 59° Northeast 179 206 1,800  Level Los Angeles Center
Mon 12:10:39 PM 33.9367 -118.5450 264° West 242 278 4,300 2,806 Climbing Los Angeles Center
Mon 12:11:00 PM 34.1188 -118.0957 59° Northeast  Level FlightAware Approximate
Mon 12:11:41 PM 33.9017 -118.6058 235° Southwest 248 285 7,600  Level Los Angeles Center
Mon 12:12:00 PM 34.1816 -117.9702 59° Northeast  Level FlightAware Approximate
Mon 12:12:43 PM 33.8572 -118.5397 129° Southeast 288 331 10,300  Level Los Angeles Center
Mon 12:13:00 PM 34.2467 -117.8467 51° Northeast  Level FlightAware Approximate
Mon 12:13:45 PM 33.9092 -118.4603 52° Northeast 320 368 12,200  Level Los Angeles Center
Mon 12:14:00 PM 34.3141 -117.7295 55° Northeast  Level FlightAware Approximate
Mon 12:14:47 PM 33.9650 -118.3803 50° Northeast 357 411 14,700  Level Los Angeles Center
Mon 12:15:00 PM 34.3865 -117.6104 59° Northeast  Level FlightAware Approximate
Mon 12:15:49 PM 34.0269 -118.2600 58° Northeast 354 407 18,000  Level Los Angeles Center
Mon 12:16:51 PM 34.0708 -118.1486 65° Northeast 367 422 20,600 2,226 Climbing Los Angeles Center
Mon 12:17:53 PM 34.1183 -118.0342 63° Northeast 379 436 22,600 2,081 Climbing Los Angeles Center
Mon 12:18:55 PM 34.1797 -117.9258 56° Northeast 390 449 24,900 2,206 Climbing Los Angeles Center
Mon 12:20:09 PM 34.2561 -117.7958 55° Northeast 395 455 27,600 1,809 Climbing Los Angeles Center
Mon 12:21:11 PM 34.3206 -117.6836 55° Northeast 404 465 29,000 1,152 Climbing Los Angeles Center
Mon 12:22:14 PM 34.3964 -117.5564 54° Northeast 428 493 30,000 1,152 Climbing Los Angeles Center
Mon 12:23:16 PM 34.4686 -117.4328 55° Northeast 449 517 31,400 1,645 Climbing Los Angeles Center
Mon 12:24:18 PM 34.5417 -117.3083 54° Northeast 456 525 33,400 1,935 Climbing Los Angeles Center
Mon 12:25:20 PM 34.6247 -117.1617 55° Northeast 444 511 35,400 1,645 Climbing Los Angeles Center
Mon 12:26:22 PM 34.6950 -117.0414 55° Northeast 440 506 36,800 774 Climbing Los Angeles Center
Mon 12:27:24 PM 34.7639 -116.9219 55° Northeast 436 502 37,000 97 Climbing Los Angeles Center
Mon 12:28:26 PM 34.8331 -116.8011 55° Northeast 438 504 37,000  Level Los Angeles Center
Mon 12:29:28 PM 34.9019 -116.6794 55° Northeast 438 504 37,000  Level Los Angeles Center
Mon 12:30:30 PM 34.9897 -116.5397 52° Northeast 436 502 37,000  Level Los Angeles Center
Mon 12:31:32 PM 35.0750 -116.4344 45° Northeast 437 503 37,000  Level Los Angeles Center
Mon 12:32:34 PM 35.1592 -116.3286 46° Northeast 437 503 37,000  Level Los Angeles Center
Mon 12:33:36 PM 35.2467 -116.2228 45° Northeast 444 511 37,000  Level Los Angeles Center
Mon 12:34:38 PM 35.3292 -116.1153 47° Northeast 439 505 37,000  Level Los Angeles Center
Mon 12:35:40 PM 35.4300 -115.9869 46° Northeast 437 503 37,000  Level Los Angeles Center
Mon 12:36:42 PM 35.5183 -115.8792 45° Northeast 443 510 37,000  Level Los Angeles Center
Mon 12:37:45 PM 35.5956 -115.7667 50° Northeast 442 509 37,000  Level Los Angeles Center
Mon 12:38:47 PM 35.6489 -115.6281 65° Northeast 454 522 37,000  Level Los Angeles Center
Mon 12:39:49 PM 35.6967 -115.4867 67° East 452 520 37,000  Level Los Angeles Center
Mon 12:41:03 PM 35.7661 -115.2878 67° East 454 522 37,000  Level Los Angeles Center
Mon 12:42:05 PM 35.8128 -115.1456 68° East 453 521 37,000  Level Los Angeles Center
Mon 12:43:07 PM 35.8606 -115.0031 67° East 454 522 37,000  Level Los Angeles Center
Mon 12:44:09 PM 35.9089 -114.8608 67° East 452 520 37,000  Level Los Angeles Center
Mon 12:45:11 PM 35.9575 -114.7181 67° East 454 522 37,000  Level Los Angeles Center
Mon 12:46:14 PM 36.0136 -114.5492 68° East 448 516 37,000  Level Los Angeles Center
Mon 12:47:16 PM 36.0597 -114.4072 68° East 446 513 37,000  Level Los Angeles Center
Mon 12:48:18 PM 36.1056 -114.2664 68° East 445 512 37,000  Level Los Angeles Center
Mon 12:49:20 PM 36.1514 -114.1253 68° East 444 511 37,000  Level Los Angeles Center
Mon 12:50:22 PM 36.1989 -113.9844 67° East 444 511 37,000  Level Los Angeles Center
Mon 12:51:24 PM 36.2525 -113.8136 69° East 444 511 37,000  Level Los Angeles Center
Mon 12:52:26 PM 36.2992 -113.6722 68° East 444 511 37,000  Level Los Angeles Center
Mon 12:53:28 PM 36.3442 -113.5294 69° East 445 512 37,000  Level Los Angeles Center
Mon 12:54:30 PM 36.3897 -113.3861 68° East 446 513 37,000  Level Los Angeles Center
Mon 12:55:33 PM 36.4350 -113.2431 68° East 446 513 37,000  Level Los Angeles Center
Mon 12:56:35 PM 36.4806 -113.0992 68° East 447 514 37,000  Level Los Angeles Center
Mon 12:57:37 PM 36.5350 -112.9267 69° East 447 514 37,000  Level Los Angeles Center
Mon 12:58:39 PM 36.5719 -112.8067 69° East 447 514 37,000  Level Los Angeles Center
Mon 12:59:41 PM 36.6264 -112.6336 69° East 448 516 37,000  Level Los Angeles Center
Mon 01:00:43 PM 36.6719 -112.4900 68° East 449 517 37,000  Level Los Angeles Center
Mon 01:01:45 PM 36.7147 -112.3453 70° East 447 514 37,000  Level Los Angeles Center
Mon 01:02:47 PM 36.7600 -112.2006 69° East 449 517 37,000  Level Los Angeles Center
Mon 01:03:59 PM 36.8133 -112.0178 70° East 449 517 37,000  Level Denver Center
Mon 01:05:01 PM 36.8625 -111.8539 69° East 450 518 37,000  Level Denver Center
Mon 01:06:03 PM 36.9047 -111.7131 69° East 451 519 37,000  Level Denver Center
Mon 01:07:05 PM 36.9464 -111.5736 69° East 450 518 37,000  Level Denver Center
Mon 01:08:07 PM 36.9953 -111.4114 69° East 448 516 37,000  Level Denver Center
Mon 01:09:09 PM 37.0392 -111.2692 69° East 451 519 37,000  Level Denver Center
Mon 01:10:11 PM 37.0861 -111.1072 70° East 445 512 37,000  Level Denver Center
Mon 01:11:13 PM 37.1278 -110.9669 70° East 447 514 37,000  Level Denver Center
Mon 01:12:15 PM 37.1744 -110.8031 70° East 447 514 37,000  Level Denver Center
Mon 01:13:17 PM 37.2153 -110.6619 70° East 445 512 37,000  Level Denver Center
Mon 01:14:19 PM 37.2617 -110.4978 70° East 446 513 37,000 194 Level Denver Center
Mon 01:15:21 PM 37.3036 -110.3597 69° East 446 513 37,400 768 Climbing Denver Center
Mon 01:16:24 PM 37.3494 -110.1967 70° East 443 510 38,600 768 Climbing Denver Center
Mon 01:17:26 PM 37.3897 -110.0531 71° East 449 517 39,000 194 Climbing Denver Center
Mon 01:18:28 PM 37.4286 -109.9144 71° East 444 511 39,000  Level Denver Center
Mon 01:19:30 PM 37.4728 -109.7517 71° East 441 507 39,000  Level Denver Center
Mon 01:20:32 PM 37.5142 -109.6072 70° East 447 514 39,000  Level Denver Center
Mon 01:21:34 PM 37.5597 -109.4394 71° East 451 519 39,000  Level Denver Center
Mon 01:22:36 PM 37.5989 -109.2975 71° East 450 518 39,000  Level Denver Center
Mon 01:23:38 PM 37.6442 -109.1336 71° East 444 511 39,000  Level Denver Center
Mon 01:24:40 PM 37.6833 -108.9908 71° East 446 513 39,000  Level Denver Center
Mon 01:25:42 PM 37.7272 -108.8236 72° East 448 516 39,000  Level Denver Center
Mon 01:26:44 PM 37.7658 -108.6819 71° East 445 512 39,000  Level Denver Center
Mon 01:27:46 PM 37.8100 -108.5183 71° East 441 507 39,000  Level Denver Center
Mon 01:28:48 PM 37.8472 -108.3758 72° East 443 510 39,000  Level Denver Center
Mon 01:29:50 PM 37.8853 -108.2331 71° East 445 512 39,000  Level Denver Center
Mon 01:30:52 PM 37.9292 -108.0664 71° East 447 514 39,000  Level Denver Center
Mon 01:31:54 PM 37.9664 -107.9222 72° East 449 517 39,000  Level Denver Center
Mon 01:32:56 PM 38.0097 -107.7561 72° East 444 511 39,000  Level Denver Center
Mon 01:33:58 PM 38.0467 -107.6106 72° East 449 517 39,000  Level Denver Center
Mon 01:35:00 PM 38.0869 -107.4503 72° East 449 517 39,000  Level Denver Center
Mon 01:36:02 PM 38.1306 -107.2836 72° East 448 516 39,000  Level Denver Center
Mon 01:37:04 PM 38.1694 -107.1286 72° East 455 524 39,000  Level Denver Center
Mon 01:38:06 PM 38.2069 -106.9764 73° East 454 522 39,000  Level Denver Center
Mon 01:39:08 PM 38.2464 -106.8200 72° East 454 522 39,000  Level Denver Center
Mon 01:40:10 PM 38.2822 -106.6733 73° East 455 524 39,000  Level Denver Center
Mon 01:41:12 PM 38.3236 -106.5058 72° East 445 512 39,000  Level Denver Center
Mon 01:42:14 PM 38.3575 -106.3689 72° East 452 520 39,000  Level Denver Center
Mon 01:43:28 PM 38.4006 -106.1878 73° East 448 516 39,000  Level Denver Center
Mon 01:44:31 PM 38.4453 -106.0025 73° East 454 522 39,000  Level Denver Center
Mon 01:45:33 PM 38.4864 -105.8311 73° East 458 527 39,000  Level Denver Center
Mon 01:46:35 PM 38.5219 -105.6817 73° East 459 528 39,000  Level Denver Center
Mon 01:47:37 PM 38.5589 -105.5233 73° East 463 533 39,000  Level Denver Center
Mon 01:48:39 PM 38.5964 -105.3661 73° East 460 529 39,000  Level Denver Center
Mon 01:49:41 PM 38.6328 -105.2078 74° East 461 531 39,000  Level Denver Center
Mon 01:50:43 PM 38.6756 -105.0222 73° East 463 533 39,000  Level Denver Center
Mon 01:51:45 PM 38.7125 -104.8631 73° East 464 534 39,000  Level Denver Center
Mon 01:52:47 PM 38.7486 -104.7050 74° East 461 531 39,000  Level Denver Center
Mon 01:53:49 PM 38.7842 -104.5478 74° East 459 528 39,000  Level Denver Center
Mon 01:54:51 PM 38.8194 -104.3897 74° East 458 527 39,000  Level Denver Center
Mon 01:55:53 PM 38.8553 -104.2322 74° East 459 528 39,000  Level Denver Center
Mon 01:56:55 PM 38.8900 -104.0769 74° East 454 522 39,000  Level Denver Center
Mon 01:57:57 PM 38.9294 -103.8925 75° East 456 525 39,000  Level Denver Center
Mon 01:58:59 PM 38.9642 -103.7353 74° East 455 524 39,000  Level Denver Center
Mon 02:00:01 PM 38.9981 -103.5769 75° East 456 525 39,000  Level Denver Center
Mon 02:01:03 PM 39.0311 -103.4203 75° East 454 522 39,000  Level Denver Center
Mon 02:02:05 PM 39.0658 -103.2617 74° East 457 526 39,000  Level Denver Center
Mon 02:03:07 PM 39.0989 -103.1022 75° East 458 527 39,000  Level Denver Center
Mon 02:04:10 PM 39.1400 -102.9153 74° East 461 531 39,000  Level Denver Center
Mon 02:05:11 PM 39.1733 -102.7539 75° East 463 533 39,000  Level Denver Center
Mon 02:06:14 PM 39.2053 -102.5939 76° East 461 531 39,000  Level Denver Center
Mon 02:07:16 PM 39.2364 -102.4394 75° East 464 534 39,000  Level Denver Center
Mon 02:08:18 PM 39.2736 -102.2589 75° East 466 536 39,000  Level Denver Center
Mon 02:09:20 PM 39.3056 -102.1053 75° East 464 534 39,000  Level Denver Center
Mon 02:10:22 PM 39.3378 -101.9411 76° East 461 531 39,000  Level Denver Center
Mon 02:11:24 PM 39.3739 -101.7608 75° East 466 536 39,000  Level Denver Center
Mon 02:12:26 PM 39.3964 -101.6047 79° East 465 535 39,000  Level Denver Center
Mon 02:13:27 PM 39.4069 -101.4175 86° East 468 539 39,000  Level Denver Center
Mon 02:14:29 PM 39.4186 -101.2575 85° East 469 540 39,000  Level Denver Center
Mon 02:15:31 PM 39.4317 -101.0728 85° East 465 535 39,000  Level Denver Center
Mon 02:16:33 PM 39.4419 -100.9133 85° East 466 536 39,000  Level Denver Center
Mon 02:17:35 PM 39.4547 -100.7303 85° East 462 532 39,000  Level Denver Center
Mon 02:18:37 PM 39.4650 -100.5756 85° East 455 524 39,000  Level Denver Center
Mon 02:19:39 PM 39.4761 -100.3917 85° East 458 527 39,000  Level Denver Center
Mon 02:20:41 PM 39.4858 -100.2372 85° East 454 522 39,000  Level Denver Center
Mon 02:21:43 PM 39.4975 -100.0522 85° East 462 532 39,000  Level Denver Center
Mon 02:22:45 PM 39.5119 -99.8906 83° East 458 527 39,000  Level Denver Center
Mon 02:23:47 PM 39.5306 -99.7233 82° East 466 536 39,000  Level Denver Center
Mon 02:24:49 PM 39.5483 -99.5550 82° East 471 542 39,000  Level Denver Center
Mon 02:25:51 PM 39.5664 -99.3864 82° East 473 544 39,000  Level Denver Center
Mon 02:26:53 PM 39.5839 -99.2156 82° East 478 550 39,000  Level Denver Center
Mon 02:27:55 PM 39.6044 -99.0114 82° East 477 549 39,000  Level Denver Center
Mon 02:28:57 PM 39.6222 -98.8433 82° East 475 547 39,000  Level Denver Center
Mon 02:29:49 PM 39.6342 -98.7056 84° East 479 551 39,000  Level Minneapolis Center
Mon 02:30:51 PM 39.6503 -98.5361 83° East 478 550 39,000  Level Minneapolis Center
Mon 02:31:53 PM 39.6675 -98.3672 82° East 475 547 39,000  Level Minneapolis Center
Mon 02:32:55 PM 39.6867 -98.1644 83° East 474 545 39,000  Level Minneapolis Center
Mon 02:33:56 PM 39.7022 -97.9961 83° East 473 544 39,000  Level Minneapolis Center
Mon 02:34:58 PM 39.7169 -97.8289 83° East 469 540 39,000  Level Minneapolis Center
Mon 02:36:00 PM 39.7333 -97.6608 83° East 469 540 39,000  Level Minneapolis Center
Mon 02:37:02 PM 39.7464 -97.4925 84° East 470 541 39,000  Level Minneapolis Center
Mon 02:38:04 PM 39.7617 -97.3264 83° East 466 536 39,000  Level Minneapolis Center
Mon 02:39:06 PM 39.7789 -97.1314 83° East 467 537 39,000  Level Minneapolis Center
Mon 02:39:21 PM 39.7828 -97.0881 83° East 465 535 39,000  Level Kansas City Center
Mon 02:40:23 PM 39.7967 -96.9217 84° East 469 540 39,000  Level Kansas City Center
Mon 02:41:25 PM 39.8100 -96.7536 84° East 469 540 39,000  Level Kansas City Center
Mon 02:42:27 PM 39.8239 -96.5856 84° East 469 540 39,000  Level Kansas City Center
Mon 02:43:29 PM 39.8369 -96.4161 84° East 472 543 39,000  Level Kansas City Center
Mon 02:44:31 PM 39.8528 -96.2131 84° East 472 543 39,000  Level Kansas City Center
Mon 02:45:33 PM 39.8633 -96.0606 85° East 472 543 39,000  Level Kansas City Center
Mon 02:46:35 PM 39.8778 -95.8708 84° East 472 543 39,000  Level Kansas City Center
Mon 02:47:37 PM 39.8897 -95.7072 85° East 472 543 39,000  Level Kansas City Center
Mon 02:48:39 PM 39.9033 -95.5153 85° East 474 545 39,000  Level Kansas City Center
Mon 02:49:41 PM 39.9147 -95.3500 85° East 476 548 39,000  Level Kansas City Center
Mon 02:50:43 PM 39.9261 -95.1847 85° East 476 548 39,000  Level Kansas City Center
Mon 02:51:45 PM 39.9389 -94.9911 85° East 477 549 39,000  Level Kansas City Center
Mon 02:52:47 PM 39.9503 -94.8258 85° East 478 550 39,000  Level Kansas City Center
Mon 02:53:49 PM 39.9622 -94.6328 85° East 477 549 39,000  Level Kansas City Center
Mon 02:54:51 PM 39.9728 -94.4669 85° East 478 550 39,000  Level Kansas City Center
Mon 02:55:52 PM 39.9847 -94.2733 85° East 479 551 39,000  Level Kansas City Center
Mon 02:56:54 PM 39.9939 -94.1069 86° East 479 551 39,000  Level Kansas City Center
Mon 02:57:56 PM 40.0044 -93.9286 86° East 487 560 39,000  Level Kansas City Center
Mon 02:58:58 PM 40.0222 -93.7581 82° East 483 556 39,000  Level Kansas City Center
Mon 03:00:00 PM 40.0386 -93.5894 83° East 476 548 39,000  Level Kansas City Center
Mon 03:01:02 PM 40.0661 -93.3872 80° East 478 550 39,000  Level Kansas City Center
Mon 03:02:04 PM 40.1133 -93.2275 69° East 476 548 39,000  Level Kansas City Center
Mon 03:03:06 PM 40.1503 -93.0617 74° East 478 550 39,000  Level Kansas City Center
Mon 03:04:08 PM 40.1908 -92.8928 72° East 478 550 39,000  Level Kansas City Center
Mon 03:05:09 PM 40.2339 -92.7086 73° East 476 548 39,000  Level Kansas City Center
Mon 03:06:11 PM 40.2736 -92.5494 72° East 478 550 39,000  Level Kansas City Center
Mon 03:07:13 PM 40.3167 -92.3933 70° East 477 549 39,000  Level Kansas City Center
Mon 03:08:15 PM 40.3550 -92.2206 74° East 484 557 39,000 -484 Level Kansas City Center
Mon 03:09:17 PM 40.4028 -92.0250 72° East 476 548 38,000 -1,306 Descending Kansas City Center
Mon 03:10:19 PM 40.4431 -91.8575 72° East 482 555 36,300 -1,548 Descending Kansas City Center
Mon 03:11:21 PM 40.4836 -91.6881 72° East 489 563 34,800 -1,500 Descending Kansas City Center
Mon 03:11:55 PM 40.5100 -91.5861 71° East 492 566 33,900 -1,125 Descending Chicago Center
Mon 03:12:57 PM 40.5514 -91.4153 72° East 493 567 33,000 -435 Descending Chicago Center
Mon 03:13:59 PM 40.6100 -91.2353 67° East 488 562 33,000  Level Chicago Center
Mon 03:15:01 PM 40.6678 -91.0689 65° Northeast 497 572 33,000  Level Chicago Center
Mon 03:16:03 PM 40.7253 -90.9028 65° Northeast 498 573 33,000  Level Chicago Center
Mon 03:17:05 PM 40.7817 -90.7358 66° East 498 573 33,000 -194 Level Chicago Center
Mon 03:18:07 PM 40.8364 -90.5692 66° East 495 570 32,600 -927 Descending Chicago Center
Mon 03:19:08 PM 40.8939 -90.4006 66° East 498 573 31,100 -1,610 Descending Chicago Center
Mon 03:20:10 PM 40.9578 -90.2108 66° East 499 574 29,300 -1,597 Descending Chicago Center
Mon 03:21:12 PM 41.0053 -90.0633 67° East 494 568 27,800 -1,742 Descending Chicago Center
Mon 03:22:14 PM 41.0689 -89.8689 66° East 476 548 25,700 -1,645 Descending Chicago Center
Mon 03:23:16 PM 41.1200 -89.7144 66° East 461 531 24,400 -1,597 Descending Chicago Center
Mon 03:24:18 PM 41.1711 -89.5625 66° East 452 520 22,400 -2,049 Descending Chicago Center
Mon 03:25:19 PM 41.2286 -89.4203 62° Northeast 441 507 20,200 -2,000 Descending Chicago Center
Mon 03:26:21 PM 41.2856 -89.2800 62° Northeast 434 499 18,300 -2,177 Descending Chicago Center
Mon 03:27:23 PM 41.3408 -89.1389 62° Northeast 416 479 15,700 -2,226 Descending Chicago Center
Mon 03:28:25 PM 41.3942 -89.0050 62° Northeast 411 473 13,700 -1,935 Descending Chicago Center
Mon 03:29:27 PM 41.4458 -88.8775 62° Northeast 398 458 11,700 -1,306 Descending Chicago Center
Mon 03:30:29 PM 41.5047 -88.7283 62° Northeast 383 441 11,000 -341 Descending Chicago Center
Mon 03:31:30 PM 41.5542 -88.6019 62° Northeast 387 445 11,000  Level Chicago Center
Mon 03:32:32 PM 41.6044 -88.4789 61° Northeast 381 438 11,000 -290 Level Chicago Center
Mon 03:33:34 PM 41.6672 -88.3639 54° Northeast 383 441 10,400 -532 Descending Chicago Center
Mon 03:34:36 PM 41.7269 -88.2647 51° Northeast 347 399 9,900 -871 Descending Chicago Center
Mon 03:35:38 PM 41.7803 -88.1731 52° Northeast 318 366 8,600 -1,161 Descending Chicago Center
Mon 03:36:40 PM 41.8303 -88.0847 53° Northeast 301 346 7,500 -865 Descending Chicago Center
Mon 03:37:29 PM 41.8833 -88.0000 50° Northeast 300 345 7,000 -275 Descending Chicago TRACON
Mon 03:38:29 PM 41.9500 -88.0167 349° North 292 336 7,000 -250 Level Chicago TRACON
Mon 03:39:29 PM 42.0000 -88.0833 315° West 232 267 6,500 -650 Descending Chicago TRACON
Mon 03:40:29 PM 42.0500 -88.1500 315° West 205 236 5,700 -769 Descending Chicago TRACON
Mon 03:40:47 PM 42.0494 -88.1619 266° West 223 257 5,500 -1,050 Descending Chicago Center
Mon 03:41:49 PM 42.0939 -88.1267 30° Northeast 205 236 4,300 -1,222 Descending Chicago Center
Mon 03:42:35 PM 42.0833 -88.0667 103° East 175 201 3,300 -1,080 Descending Chicago TRACON
Mon 03:43:29 PM 42.0667 -88.0167 114° Southeast 175 201 2,500 -842 Descending Chicago TRACON
Mon 03:44:29 PM 42.0333 -87.9833 143° Southeast 136 157 1,700 -709 Descending Chicago TRACON
Mon 03:45:36 PM 42.0000 -87.9500 143° Southeast 130 150 1,000 -627 Descending Chicago TRACON
Mon 03:47:00 PM 41.9817 -87.9067 109° East  Level Estimated
Mon 03:54:00 PM 41.9817 -87.9067 109° East  Level Estimated

Login

Don't have an account? Register now (free) for customized features, flight alerts, and more!